createdAt,value
2018-05-24T00:01:12.855Z,102292.00
2018-05-24T00:06:13.805Z,102293.63
2018-05-24T00:11:14.772Z,102294.16
2018-05-24T00:16:15.726Z,102294.06
2018-05-24T00:21:16.731Z,102294.70
2018-05-24T00:26:17.696Z,102294.70
2018-05-24T00:31:18.780Z,102297.83
2018-05-24T00:36:19.693Z,102303.76
2018-05-24T00:41:20.659Z,102305.47
2018-05-24T00:46:21.655Z,102299.78
2018-05-24T00:51:22.634Z,102306.07
2018-05-24T00:56:23.636Z,102312.53
2018-05-24T01:01:24.601Z,102309.25
2018-05-24T01:06:32.440Z,102314.30
2018-05-24T01:11:33.387Z,102313.30
2018-05-24T01:16:34.354Z,102310.56
2018-05-24T01:21:35.332Z,102315.83
2018-05-24T01:26:36.303Z,102321.02
2018-05-24T01:31:37.317Z,102320.50
2018-05-24T01:42:11.116Z,102320.23
2018-05-24T01:47:12.056Z,102326.44
2018-05-24T01:52:13.014Z,102318.59
2018-05-24T01:57:13.977Z,102321.02
2018-05-24T02:02:14.949Z,102333.54
2018-05-24T02:07:15.923Z,102331.98
2018-05-24T02:12:16.851Z,102333.11
2018-05-24T02:17:17.828Z,102329.16
2018-05-24T02:22:18.801Z,102319.46
2018-05-24T02:27:19.773Z,102320.94
2018-05-24T02:32:20.765Z,102316.55
2018-05-24T02:37:21.722Z,102313.51
2018-05-24T02:42:22.678Z,102308.16
2018-05-24T02:47:23.649Z,102305.84
2018-05-24T02:52:24.622Z,102310.63
2018-05-24T02:57:25.569Z,102309.41
2018-05-24T03:02:26.520Z,102305.73
2018-05-24T03:07:27.475Z,102292.94
2018-05-24T03:12:28.458Z,102304.52
2018-05-24T03:17:29.438Z,102300.77
2018-05-24T03:22:30.393Z,102302.28
2018-05-24T03:27:31.359Z,102307.03
2018-05-24T03:32:32.333Z,102306.23
2018-05-24T03:37:33.290Z,102307.81
2018-05-24T03:42:34.260Z,102306.30
2018-05-24T03:47:35.201Z,102307.81
2018-05-24T03:52:36.148Z,102304.44
2018-05-24T03:57:37.173Z,102293.59
2018-05-24T04:03:05.499Z,102299.70
2018-05-24T04:08:06.456Z,102293.29
2018-05-24T04:13:07.422Z,102302.35
2018-05-24T04:18:08.401Z,102292.89
2018-05-24T04:23:09.444Z,102296.89
2018-05-24T04:28:10.416Z,102294.11
2018-05-24T04:33:11.391Z,102290.87
2018-05-24T04:38:12.345Z,102286.88
2018-05-24T04:43:13.291Z,102283.61
2018-05-24T04:48:14.240Z,102286.77
2018-05-24T04:53:15.192Z,102288.72
2018-05-24T04:58:16.139Z,102291.08
2018-05-24T05:03:17.078Z,102290.95
2018-05-24T05:08:18.048Z,102289.92
2018-05-24T05:13:19.055Z,102292.08
2018-05-24T05:18:19.988Z,102291.53
2018-05-24T05:23:20.958Z,102294.10
2018-05-24T05:28:21.919Z,102297.39
2018-05-24T05:33:22.924Z,102305.41
2018-05-24T05:38:23.911Z,102302.16
2018-05-24T05:43:24.872Z,102299.17
2018-05-24T05:48:25.862Z,102301.05
2018-05-24T05:53:26.828Z,102294.00
2018-05-24T05:58:27.806Z,102286.35
2018-05-24T06:03:28.756Z,102278.41
2018-05-24T06:08:29.728Z,102279.69
2018-05-24T06:13:30.682Z,102288.27
2018-05-24T06:18:31.635Z,102287.42
2018-05-24T06:23:32.594Z,102289.27
2018-05-24T06:28:33.762Z,102289.20
2018-05-24T06:33:34.522Z,102293.41
2018-05-24T06:38:35.470Z,102285.00
2018-05-24T06:43:36.427Z,102290.77
2018-05-24T06:48:37.400Z,102296.69
2018-05-24T06:53:38.380Z,102294.83
2018-05-24T06:58:39.380Z,102300.36
2018-05-24T07:03:40.356Z,102300.84
2018-05-24T07:08:41.325Z,102301.73
2018-05-24T07:13:42.287Z,102301.81
2018-05-24T07:18:43.251Z,102301.94
2018-05-24T07:23:44.238Z,102305.30
2018-05-24T07:28:45.198Z,102310.34
2018-05-24T07:33:46.210Z,102304.43
2018-05-24T07:38:47.200Z,102308.67
2018-05-24T07:43:48.159Z,102316.81
2018-05-24T07:48:49.118Z,102310.64
2018-05-24T07:53:50.087Z,102317.14
2018-05-24T07:58:51.070Z,102311.80
2018-05-24T08:03:52.042Z,102314.27
2018-05-24T08:08:53.045Z,102315.05
2018-05-24T08:13:53.999Z,102315.44
2018-05-24T08:18:54.958Z,102313.55
2018-05-24T08:23:55.964Z,102320.32
2018-05-24T08:28:56.944Z,102312.38
2018-05-24T08:33:57.949Z,102307.23
2018-05-24T08:38:58.942Z,102305.30
2018-05-24T08:43:59.931Z,102302.77
2018-05-24T08:49:01.669Z,102298.78
2018-05-24T08:54:02.824Z,102304.41
2018-05-24T08:59:03.788Z,102306.69
2018-05-24T09:04:04.760Z,102299.38
2018-05-24T09:09:05.885Z,102298.50
2018-05-24T09:14:06.775Z,102290.87
2018-05-24T09:19:07.756Z,102294.62
2018-05-24T09:24:08.735Z,102279.70
2018-05-24T09:29:09.720Z,102294.71
2018-05-24T09:34:10.740Z,102294.00
2018-05-24T09:39:11.762Z,102288.16
2018-05-24T09:44:12.742Z,102277.13
2018-05-24T09:49:13.736Z,102280.45
2018-05-24T09:54:14.719Z,102275.64
2018-05-24T09:59:15.693Z,102281.33
2018-05-24T10:04:16.630Z,102280.12
2018-05-24T10:09:17.598Z,102273.06
2018-05-24T10:14:18.616Z,102276.14
2018-05-24T10:19:19.588Z,102276.70
2018-05-24T10:24:20.596Z,102268.33
2018-05-24T10:29:21.647Z,102260.44
2018-05-24T10:34:22.694Z,102257.30
2018-05-24T10:39:23.712Z,102261.19
2018-05-24T10:44:24.689Z,102261.59
2018-05-24T10:49:25.672Z,102257.19
2018-05-24T10:54:26.645Z,102253.45
2018-05-24T10:59:27.619Z,102247.94
2018-05-24T11:04:28.595Z,102250.64
2018-05-24T11:09:29.563Z,102245.64
2018-05-24T11:14:30.524Z,102251.75
2018-05-24T11:19:31.516Z,102246.13
2018-05-24T11:24:32.530Z,102246.57
2018-05-24T11:29:33.536Z,102238.02
2018-05-24T11:34:34.535Z,102241.18
2018-05-24T11:39:35.509Z,102225.31
2018-05-24T11:44:36.468Z,102224.01
2018-05-24T11:49:37.444Z,102219.68
2018-05-24T11:54:38.405Z,102220.47
2018-05-24T11:59:39.439Z,102211.41
2018-05-24T12:04:40.412Z,102208.35
2018-05-24T12:09:41.380Z,102203.79
2018-05-24T12:14:42.378Z,102205.52
2018-05-24T12:19:43.376Z,102198.27
2018-05-24T12:24:44.357Z,102195.78
2018-05-24T12:29:45.349Z,102191.91
2018-05-24T12:34:46.356Z,102185.16
2018-05-24T12:39:47.328Z,102179.17
2018-05-24T12:44:48.307Z,102166.22
2018-05-24T12:49:49.304Z,102169.14
2018-05-24T12:54:50.276Z,102150.17
2018-05-24T12:59:51.245Z,102144.09
2018-05-24T13:04:52.204Z,102140.30
2018-05-24T13:09:53.201Z,102144.52
2018-05-24T13:14:54.192Z,102134.47
2018-05-24T13:19:55.167Z,102135.64
2018-05-24T13:24:56.164Z,102133.34
2018-05-24T13:29:57.161Z,102129.22
2018-05-24T13:34:58.175Z,102127.70
2018-05-24T13:39:59.160Z,102116.58
2018-05-24T13:45:00.184Z,102106.72
2018-05-24T13:50:01.160Z,102099.80
2018-05-24T13:55:02.179Z,102099.80
2018-05-24T14:00:03.172Z,102102.96
2018-05-24T14:05:04.148Z,102093.88
2018-05-24T14:10:05.116Z,102097.07
2018-05-24T14:15:06.091Z,102087.09
2018-05-24T14:20:07.072Z,102084.98
2018-05-24T14:25:08.088Z,102080.38
2018-05-24T14:30:09.077Z,102085.12
2018-05-24T14:35:10.088Z,102076.42
2018-05-24T14:40:11.081Z,102078.25
2018-05-24T14:45:12.086Z,102060.74
2018-05-24T14:50:13.058Z,102069.86
2018-05-24T14:55:14.041Z,102058.96
2018-05-24T15:00:14.994Z,102061.07
2018-05-24T15:05:15.953Z,102047.90
2018-05-24T15:10:16.905Z,102042.11
2018-05-24T15:15:17.892Z,102055.94
2018-05-24T15:20:18.884Z,102045.73
2018-05-24T15:25:19.886Z,102049.16
2018-05-24T15:30:20.893Z,102038.16
2018-05-24T15:35:21.924Z,102044.25
2018-05-24T15:40:22.919Z,102037.37
2018-05-24T15:45:23.913Z,102034.64
2018-05-24T15:50:24.877Z,102024.45
2018-05-24T15:55:25.876Z,102032.92
2018-05-24T16:00:26.846Z,102041.84
2018-05-24T16:05:27.876Z,102036.34
2018-05-24T16:10:28.831Z,102040.02
2018-05-24T16:15:29.833Z,102029.58
2018-05-24T16:20:30.857Z,102018.22
2018-05-24T16:25:31.860Z,102015.89
2018-05-24T16:30:32.854Z,102014.03
2018-05-24T16:35:33.882Z,102012.20
2018-05-24T16:40:34.832Z,102011.06
2018-05-24T16:45:35.844Z,102010.09
2018-05-24T16:50:37.042Z,102012.24
2018-05-24T16:55:38.034Z,102000.68
2018-05-24T17:00:39.086Z,102007.80
2018-05-24T17:05:40.109Z,102013.10
2018-05-24T17:10:41.124Z,102003.54
2018-05-24T17:15:42.092Z,101998.56
2018-05-24T17:20:43.088Z,102002.10
2018-05-24T17:25:44.083Z,101995.61
2018-05-24T17:30:45.134Z,101993.91
2018-05-24T17:35:46.199Z,102010.77
2018-05-24T17:40:47.238Z,102006.86
2018-05-24T17:45:48.262Z,102016.15
2018-05-24T17:50:49.265Z,102018.33
2018-05-24T17:55:50.273Z,102013.13
2018-05-24T18:00:51.283Z,102023.16
2018-05-24T18:05:52.268Z,102017.97
2018-05-24T18:10:53.293Z,102030.44
2018-05-24T18:15:54.297Z,102029.00
2018-05-24T18:20:55.321Z,102037.25
2018-05-24T18:25:56.323Z,102035.38
2018-05-24T18:30:57.333Z,102038.67
2018-05-24T18:35:58.374Z,102029.03
2018-05-24T18:40:59.327Z,102035.05
2018-05-24T18:46:00.334Z,102043.59
2018-05-24T18:51:01.324Z,102041.04
2018-05-24T18:56:02.342Z,102046.59
2018-05-24T19:01:03.349Z,102049.64
2018-05-24T19:06:04.390Z,102047.67
2018-05-24T19:11:05.418Z,102049.02
2018-05-24T19:16:06.457Z,102048.72
2018-05-24T19:21:07.481Z,102055.08
2018-05-24T19:26:08.495Z,102065.03
2018-05-24T19:31:09.478Z,102060.99
2018-05-24T19:36:10.513Z,102066.19
2018-05-24T19:41:11.515Z,102070.49
2018-05-24T19:46:12.565Z,102071.15
2018-05-24T19:51:13.571Z,102075.06
2018-05-24T19:56:14.637Z,102075.61
2018-05-24T20:01:15.642Z,102077.16
2018-05-24T20:06:16.698Z,102076.14
2018-05-24T20:11:17.715Z,102080.91
2018-05-24T20:16:18.693Z,102080.53
2018-05-24T20:21:19.660Z,102074.56
2018-05-24T20:26:20.633Z,102071.55
2018-05-24T20:31:21.645Z,102067.70
2018-05-24T20:36:22.655Z,102071.31
2018-05-24T20:41:23.645Z,102070.61
2018-05-24T20:46:24.610Z,102071.52
2018-05-24T20:51:25.601Z,102070.27
2018-05-24T20:56:26.595Z,102074.73
2018-05-24T21:01:27.634Z,102074.59
2018-05-24T21:06:29.669Z,102075.73
2018-05-24T21:11:30.658Z,102077.66
2018-05-24T21:16:31.653Z,102080.22
2018-05-24T21:21:32.613Z,102075.59
2018-05-24T21:26:33.596Z,102068.34
2018-05-24T21:31:34.581Z,102075.20
2018-05-24T21:36:35.581Z,102069.74
2018-05-24T21:41:36.609Z,102078.47
2018-05-24T21:46:37.730Z,102077.36
2018-05-24T21:51:38.985Z,102078.38
2018-05-24T21:56:40.013Z,102077.46
2018-05-24T22:01:40.991Z,102081.58
2018-05-24T22:06:41.966Z,102080.39
2018-05-24T22:11:42.945Z,102092.41
2018-05-24T22:16:43.927Z,102103.47
2018-05-24T22:21:44.911Z,102085.22
2018-05-24T22:26:45.883Z,102096.69
2018-05-24T22:31:46.880Z,102092.66
2018-05-24T22:36:47.899Z,102097.28
2018-05-24T22:41:48.883Z,102090.07
2018-05-24T22:46:49.833Z,102087.14
2018-05-24T22:51:50.783Z,102088.33
2018-05-24T22:56:51.724Z,102084.57
2018-05-24T23:01:52.716Z,102079.75
2018-05-24T23:06:53.682Z,102077.34
2018-05-24T23:11:54.659Z,102078.25
2018-05-24T23:16:55.607Z,102075.52
2018-05-24T23:21:56.579Z,102066.95
2018-05-24T23:26:57.539Z,102064.94
2018-05-24T23:31:58.570Z,102068.63
2018-05-24T23:36:59.540Z,102055.78
2018-05-24T23:42:00.512Z,102055.81
2018-05-24T23:47:01.486Z,102056.33
2018-05-24T23:52:02.461Z,102068.38
2018-05-24T23:57:03.457Z,102063.19
